createdAt,value
2019-02-08T00:02:21.256Z,4.42
2019-02-08T00:04:52.296Z,4.44
2019-02-08T00:07:22.825Z,4.39
2019-02-08T00:09:53.580Z,4.59
2019-02-08T00:12:24.294Z,4.40
2019-02-08T00:14:54.918Z,4.64
2019-02-08T00:17:25.471Z,4.53
2019-02-08T00:19:56.500Z,4.60
2019-02-08T00:22:27.047Z,4.52
2019-02-08T00:24:57.850Z,4.62
2019-02-08T00:27:28.390Z,4.58
2019-02-08T00:29:58.652Z,4.46
2019-02-08T00:32:29.367Z,4.60
2019-02-08T00:35:00.166Z,4.48
2019-02-08T00:37:31.019Z,4.40
2019-02-08T00:40:01.647Z,4.40
2019-02-08T00:42:32.301Z,4.79
2019-02-08T00:45:02.933Z,4.40
2019-02-08T00:47:34.067Z,4.50
2019-02-08T00:50:13.572Z,4.50
2019-02-08T00:52:44.136Z,4.36
2019-02-08T00:55:14.790Z,4.54
2019-02-08T00:57:45.000Z,4.55
2019-02-08T01:00:16.534Z,4.50
2019-02-08T01:02:49.224Z,4.69
2019-02-08T01:05:29.059Z,4.41
2019-02-08T01:08:08.864Z,4.46
2019-02-08T01:10:39.550Z,4.46
2019-02-08T01:13:10.280Z,4.11
2019-02-08T01:15:41.037Z,4.08
2019-02-08T01:18:11.637Z,4.15
2019-02-08T01:20:42.290Z,4.32
2019-02-08T01:23:14.470Z,4.35
2019-02-08T01:25:45.481Z,4.48
2019-02-08T01:28:16.023Z,4.17
2019-02-08T01:30:46.652Z,4.32
2019-02-08T01:33:17.293Z,4.52
2019-02-08T01:35:48.017Z,4.26
2019-02-08T01:38:18.666Z,4.46
2019-02-08T01:40:49.283Z,4.34
2019-02-08T01:43:19.582Z,4.36
2019-02-08T01:45:50.189Z,4.11
2019-02-08T01:48:20.785Z,4.38
2019-02-08T01:50:51.423Z,4.18
2019-02-08T01:53:22.029Z,4.30
2019-02-08T01:55:52.645Z,4.45
2019-02-08T01:58:23.187Z,4.44
2019-02-08T02:00:53.712Z,4.60
2019-02-08T02:03:23.933Z,4.66
2019-02-08T02:05:54.682Z,4.28
2019-02-08T02:08:25.311Z,4.22
2019-02-08T02:10:55.921Z,4.48
2019-02-08T02:13:26.137Z,4.26
2019-02-08T02:15:56.353Z,4.32
2019-02-08T02:18:26.907Z,4.28
2019-02-08T02:20:57.449Z,4.14
2019-02-08T02:23:28.049Z,4.25
2019-02-08T02:25:58.706Z,4.26
2019-02-08T02:28:29.350Z,4.06
2019-02-08T02:30:59.634Z,4.30
2019-02-08T02:33:30.209Z,4.14
2019-02-08T02:36:00.802Z,4.14
2019-02-08T02:38:31.451Z,4.24
2019-02-08T02:41:02.120Z,4.18
2019-02-08T02:43:32.705Z,4.05
2019-02-08T02:46:03.277Z,4.15
2019-02-08T02:48:33.873Z,4.23
2019-02-08T02:51:04.513Z,4.30
2019-02-08T02:53:35.016Z,4.06
2019-02-08T02:56:05.562Z,4.07
2019-02-08T02:58:36.191Z,4.02
2019-02-08T03:01:06.725Z,4.08
2019-02-08T03:03:37.767Z,4.01
2019-02-08T03:06:07.999Z,4.04
2019-02-08T03:08:39.785Z,4.01
2019-02-08T03:11:10.785Z,3.93
2019-02-08T03:13:41.427Z,3.98
2019-02-08T03:16:11.732Z,3.95
2019-02-08T03:18:42.277Z,3.98
2019-02-08T03:21:12.794Z,4.14
2019-02-08T03:23:43.325Z,4.15
2019-02-08T03:26:13.956Z,4.00
2019-02-08T03:28:44.493Z,3.94
2019-02-08T03:31:15.121Z,4.02
2019-02-08T03:33:45.844Z,4.13
2019-02-08T03:36:16.383Z,3.96
2019-02-08T03:38:46.908Z,3.94
2019-02-08T03:41:17.581Z,4.01
2019-02-08T03:43:48.176Z,4.06
2019-02-08T03:46:18.704Z,4.03
2019-02-08T03:48:49.245Z,4.02
2019-02-08T03:51:19.885Z,4.07
2019-02-08T03:53:50.514Z,3.98
2019-02-08T03:56:21.255Z,3.90
2019-02-08T03:58:51.882Z,3.98
2019-02-08T04:01:22.510Z,3.99
2019-02-08T04:03:53.135Z,4.00
2019-02-08T04:06:23.788Z,3.96
2019-02-08T04:08:54.399Z,3.98
2019-02-08T04:11:24.940Z,4.02
2019-02-08T04:13:55.569Z,4.10
2019-02-08T04:16:25.869Z,4.04
2019-02-08T04:18:56.418Z,4.15
2019-02-08T04:21:27.042Z,4.14
2019-02-08T04:23:57.318Z,4.06
2019-02-08T04:26:27.911Z,4.02
2019-02-08T04:28:58.520Z,4.14
2019-02-08T04:31:29.057Z,4.06
2019-02-08T04:33:59.588Z,4.10
2019-02-08T04:36:30.122Z,4.00
2019-02-08T04:39:00.759Z,4.12
2019-02-08T04:41:31.481Z,4.35
2019-02-08T04:44:02.024Z,4.10
2019-02-08T04:46:32.624Z,4.18
2019-02-08T04:49:03.347Z,4.32
2019-02-08T04:51:34.009Z,4.06
2019-02-08T04:54:04.754Z,4.15
2019-02-08T04:56:35.382Z,4.14
2019-02-08T04:59:07.173Z,3.98
2019-02-08T05:01:37.538Z,4.04
2019-02-08T05:04:08.100Z,4.06
2019-02-08T05:06:38.755Z,4.26
2019-02-08T05:09:09.355Z,4.34
2019-02-08T05:11:39.969Z,4.20
2019-02-08T05:14:10.520Z,4.20
2019-02-08T05:16:40.761Z,4.20
2019-02-08T05:19:11.486Z,4.03
2019-02-08T05:21:41.985Z,4.00
2019-02-08T05:24:12.514Z,3.88
2019-02-08T05:26:43.047Z,3.86
2019-02-08T05:29:13.246Z,4.22
2019-02-08T05:31:43.621Z,4.14
2019-02-08T05:34:14.141Z,4.16
2019-02-08T05:36:44.771Z,4.29
2019-02-08T05:39:15.298Z,4.04
2019-02-08T05:41:45.948Z,4.07
2019-02-08T05:44:16.665Z,3.96
2019-02-08T05:46:50.125Z,4.02
2019-02-08T05:49:20.676Z,3.98
2019-02-08T05:51:51.221Z,4.18
2019-02-08T05:54:21.780Z,4.26
2019-02-08T05:56:52.375Z,3.92
2019-02-08T05:59:23.027Z,3.79
2019-02-08T06:01:53.639Z,3.92
2019-02-08T06:04:24.388Z,3.88
2019-02-08T06:06:54.665Z,4.09
2019-02-08T06:09:25.231Z,3.83
2019-02-08T06:11:55.846Z,3.90
2019-02-08T06:14:26.383Z,3.94
2019-02-08T06:16:56.921Z,4.06
2019-02-08T06:19:27.566Z,3.94
2019-02-08T06:21:58.195Z,3.83
2019-02-08T06:24:28.845Z,4.16
2019-02-08T06:26:59.213Z,3.88
2019-02-08T06:29:29.789Z,3.82
2019-02-08T06:32:00.436Z,3.92
2019-02-08T06:34:30.635Z,4.08
2019-02-08T06:37:01.269Z,4.06
2019-02-08T06:39:31.887Z,4.00
2019-02-08T06:42:02.432Z,3.90
2019-02-08T06:44:33.063Z,3.86
2019-02-08T06:47:03.702Z,3.91
2019-02-08T06:49:33.975Z,3.91
2019-02-08T06:52:04.534Z,4.11
2019-02-08T06:54:35.715Z,3.96
2019-02-08T06:57:10.726Z,4.10
2019-02-08T06:59:44.469Z,4.10
2019-02-08T07:02:34.950Z,3.95
2019-02-08T07:05:12.925Z,3.90
2019-02-08T07:07:45.203Z,3.89
2019-02-08T07:10:20.336Z,4.08
2019-02-08T07:12:58.444Z,4.12
2019-02-08T07:15:33.601Z,4.29
2019-02-08T07:18:17.873Z,4.14
2019-02-08T07:21:06.805Z,4.08
2019-02-08T07:23:51.098Z,4.11
2019-02-08T07:26:24.459Z,4.16
2019-02-08T07:28:56.705Z,4.16
2019-02-08T07:31:31.535Z,4.42
2019-02-08T07:34:03.912Z,4.22
2019-02-08T07:36:52.392Z,4.20
2019-02-08T07:39:25.777Z,4.42
2019-02-08T07:41:58.156Z,4.52
2019-02-08T07:44:31.871Z,4.39
2019-02-08T07:47:07.039Z,4.47
2019-02-08T07:49:41.809Z,4.45
2019-02-08T07:52:19.939Z,4.87
2019-02-08T07:55:00.671Z,5.01
2019-02-08T07:57:38.997Z,5.08
2019-02-08T08:00:33.742Z,5.13
2019-02-08T08:03:06.377Z,5.34
2019-02-08T08:05:51.345Z,5.34
2019-02-08T08:08:23.659Z,5.32
2019-02-08T08:10:58.652Z,5.44
2019-02-08T08:13:30.861Z,5.40
2019-02-08T08:16:03.096Z,5.46
2019-02-08T08:18:47.234Z,5.34
2019-02-08T08:21:36.024Z,5.34
2019-02-08T08:24:10.985Z,5.40
2019-02-08T08:26:49.165Z,5.44
2019-02-08T08:29:21.404Z,5.80
2019-02-08T08:31:56.657Z,5.60
2019-02-08T08:34:48.459Z,5.83
2019-02-08T08:37:28.329Z,5.96
2019-02-08T08:40:21.271Z,5.69
2019-02-08T08:43:17.937Z,5.75
2019-02-08T08:46:06.067Z,5.78
2019-02-08T08:48:59.427Z,5.86
2019-02-08T08:51:49.098Z,5.62
2019-02-08T08:54:39.392Z,5.58
2019-02-08T08:57:28.799Z,5.77
2019-02-08T09:00:22.290Z,5.86
2019-02-08T09:03:08.117Z,6.17
2019-02-08T09:05:47.889Z,6.30
2019-02-08T09:08:42.355Z,6.36
2019-02-08T09:11:40.530Z,6.45
2019-02-08T09:14:40.982Z,6.48
2019-02-08T09:17:36.947Z,6.52
2019-02-08T09:20:19.864Z,6.35
2019-02-08T09:23:07.025Z,6.49
2019-02-08T09:26:00.242Z,6.34
2019-02-08T09:28:55.232Z,6.40
2019-02-08T09:31:41.419Z,6.44
2019-02-08T09:34:19.727Z,6.59
2019-02-08T09:37:29.982Z,6.63
2019-02-08T09:40:24.988Z,6.60
2019-02-08T09:43:31.463Z,6.50
2019-02-08T09:46:38.849Z,6.67
2019-02-08T09:49:42.302Z,6.70
2019-02-08T09:52:30.372Z,6.82
2019-02-08T09:55:37.474Z,6.97
2019-02-08T09:58:21.364Z,6.82
2019-02-08T10:01:20.863Z,7.04
2019-02-08T10:04:06.947Z,7.08
2019-02-08T10:07:16.118Z,7.02
2019-02-08T10:10:06.263Z,7.14
2019-02-08T10:13:15.117Z,7.31
2019-02-08T10:16:08.544Z,7.32
2019-02-08T10:19:00.588Z,7.22
2019-02-08T10:21:47.486Z,7.40
2019-02-08T10:24:32.593Z,7.56
2019-02-08T10:27:29.291Z,7.67
2019-02-08T10:30:11.913Z,7.73
2019-02-08T10:32:51.536Z,7.62
2019-02-08T10:35:34.205Z,8.00
2019-02-08T10:38:37.978Z,7.94
2019-02-08T10:41:32.605Z,8.19
2019-02-08T10:44:29.119Z,8.20
2019-02-08T10:47:25.602Z,8.34
2019-02-08T10:50:16.050Z,8.40
2019-02-08T10:53:13.404Z,8.42
2019-02-08T10:56:15.128Z,8.30
2019-02-08T10:59:21.019Z,8.23
2019-02-08T11:02:14.180Z,8.44
2019-02-08T11:05:22.743Z,8.38
2019-02-08T11:08:16.523Z,8.38
2019-02-08T11:11:05.149Z,8.50
2019-02-08T11:13:44.766Z,8.68
2019-02-08T11:16:33.111Z,8.68
2019-02-08T11:19:21.155Z,8.67
2019-02-08T11:21:53.363Z,8.48
2019-02-08T11:24:26.666Z,8.46
2019-02-08T11:26:59.603Z,8.46
2019-02-08T11:29:30.230Z,8.45
2019-02-08T11:32:00.918Z,8.62
2019-02-08T11:34:31.611Z,8.74
2019-02-08T11:37:02.226Z,8.75
2019-02-08T11:39:34.737Z,8.80
2019-02-08T11:42:05.012Z,8.94
2019-02-08T11:44:35.669Z,9.02
2019-02-08T11:47:06.188Z,9.01
2019-02-08T11:49:36.747Z,8.90
2019-02-08T11:52:07.480Z,8.98
2019-02-08T11:54:39.648Z,9.30
2019-02-08T11:57:10.254Z,9.30
2019-02-08T11:59:41.392Z,9.29
2019-02-08T12:02:13.534Z,9.47
2019-02-08T12:04:44.823Z,9.50
2019-02-08T12:07:15.427Z,9.32
2019-02-08T12:09:46.256Z,9.26
2019-02-08T12:12:17.221Z,9.22
2019-02-08T12:14:48.970Z,9.59
2019-02-08T12:17:19.627Z,9.56
2019-02-08T12:19:50.839Z,9.60
2019-02-08T12:22:24.385Z,9.52
2019-02-08T12:24:55.077Z,9.78
2019-02-08T12:27:27.782Z,9.59
2019-02-08T12:29:58.463Z,9.68
2019-02-08T12:32:29.139Z,9.54
2019-02-08T12:35:00.091Z,9.68
2019-02-08T12:37:30.957Z,9.64
2019-02-08T12:40:01.719Z,9.53
2019-02-08T12:42:32.474Z,9.54
2019-02-08T12:45:03.978Z,9.46
2019-02-08T12:47:34.883Z,9.54
2019-02-08T12:50:12.024Z,9.44
2019-02-08T12:52:42.710Z,9.42
2019-02-08T12:55:15.877Z,9.38
2019-02-08T12:57:46.551Z,9.29
2019-02-08T13:00:24.664Z,9.19
2019-02-08T13:02:57.469Z,9.17
2019-02-08T13:05:28.185Z,9.20
2019-02-08T13:07:58.803Z,9.22
2019-02-08T13:10:30.439Z,9.18
2019-02-08T13:13:02.737Z,9.24
2019-02-08T13:15:33.820Z,9.25
2019-02-08T13:18:04.788Z,9.38
2019-02-08T13:20:35.685Z,9.36
2019-02-08T13:23:06.593Z,9.49
2019-02-08T13:25:38.030Z,9.64
2019-02-08T13:28:08.754Z,9.68
2019-02-08T13:30:43.530Z,9.53
2019-02-08T13:33:13.839Z,9.52
2019-02-08T13:35:44.699Z,9.48
2019-02-08T13:38:17.092Z,9.52
2019-02-08T13:40:47.901Z,9.59
2019-02-08T13:43:18.626Z,9.50
2019-02-08T13:45:49.333Z,9.67
2019-02-08T13:48:19.718Z,9.81
2019-02-08T13:50:50.778Z,9.90
2019-02-08T13:53:21.463Z,9.72
2019-02-08T13:55:52.149Z,9.57
2019-02-08T13:58:22.977Z,9.58
2019-02-08T14:00:53.866Z,9.43
2019-02-08T14:03:24.703Z,9.41
2019-02-08T14:05:55.903Z,9.38
2019-02-08T14:08:26.773Z,9.45
2019-02-08T14:11:01.175Z,9.42
2019-02-08T14:13:32.242Z,9.43
2019-02-08T14:16:04.793Z,9.40
2019-02-08T14:18:35.799Z,9.26
2019-02-08T14:21:06.697Z,9.23
2019-02-08T14:23:37.804Z,9.29
2019-02-08T14:26:08.782Z,9.37
2019-02-08T14:28:39.494Z,9.44
2019-02-08T14:31:10.238Z,9.45
2019-02-08T14:33:40.719Z,9.64
2019-02-08T14:36:13.389Z,9.44
2019-02-08T14:38:46.574Z,9.46
2019-02-08T14:41:17.470Z,9.08
2019-02-08T14:43:48.837Z,9.37
2019-02-08T14:46:19.765Z,9.38
2019-02-08T14:48:50.725Z,9.14
2019-02-08T14:51:21.678Z,8.92
2019-02-08T14:53:53.383Z,9.04
2019-02-08T14:56:23.919Z,8.96
2019-02-08T14:58:57.542Z,9.05
2019-02-08T15:01:28.410Z,9.02
2019-02-08T15:04:00.592Z,9.05
2019-02-08T15:06:31.365Z,8.99
2019-02-08T15:09:02.076Z,9.14
2019-02-08T15:11:35.138Z,9.12
2019-02-08T15:14:05.832Z,9.12
2019-02-08T15:16:37.967Z,9.12
2019-02-08T15:19:08.736Z,8.90
2019-02-08T15:21:40.579Z,9.01
2019-02-08T15:24:11.184Z,9.13
2019-02-08T15:26:42.787Z,9.18
2019-02-08T15:29:13.503Z,9.05
2019-02-08T15:31:44.430Z,9.05
2019-02-08T15:34:15.037Z,9.08
2019-02-08T15:36:49.211Z,9.06
2019-02-08T15:39:17.639Z,9.06
2019-02-08T15:41:50.163Z,8.92
2019-02-08T15:44:20.855Z,9.07
2019-02-08T15:46:51.800Z,8.88
2019-02-08T15:49:22.141Z,8.86
2019-02-08T15:51:52.872Z,8.80
2019-02-08T15:54:26.691Z,9.07
2019-02-08T15:56:57.390Z,8.77
2019-02-08T15:59:28.056Z,8.70
2019-02-08T16:01:58.799Z,8.87
2019-02-08T16:04:29.614Z,8.90
2019-02-08T16:07:00.254Z,8.78
2019-02-08T16:09:30.975Z,8.80
2019-02-08T16:12:01.715Z,8.76
2019-02-08T16:14:32.315Z,8.75
2019-02-08T16:17:02.999Z,8.73
2019-02-08T16:19:33.708Z,8.71
2019-02-08T16:22:04.731Z,8.54
2019-02-08T16:24:35.300Z,8.74
2019-02-08T16:27:07.498Z,8.64
2019-02-08T16:29:38.192Z,8.64
2019-02-08T16:32:10.423Z,8.54
2019-02-08T16:34:40.714Z,8.65
2019-02-08T16:37:11.273Z,8.66
2019-02-08T16:39:42.028Z,8.87
2019-02-08T16:42:12.725Z,8.85
2019-02-08T16:44:45.896Z,8.77
2019-02-08T16:47:16.524Z,8.71
2019-02-08T16:49:47.122Z,8.75
2019-02-08T16:52:17.836Z,8.71
2019-02-08T16:54:48.223Z,8.68
2019-02-08T16:57:18.860Z,8.67
2019-02-08T16:59:49.262Z,8.64
2019-02-08T17:02:21.226Z,8.62
2019-02-08T17:04:51.845Z,8.72
2019-02-08T17:07:22.456Z,9.00
2019-02-08T17:09:53.270Z,8.84
2019-02-08T17:12:25.589Z,8.78
2019-02-08T17:14:56.243Z,8.98
2019-02-08T17:17:29.817Z,8.78
2019-02-08T17:20:00.537Z,8.78
2019-02-08T17:22:39.214Z,8.78
2019-02-08T17:25:14.356Z,8.82
2019-02-08T17:27:46.670Z,8.79
2019-02-08T17:30:21.522Z,8.78
2019-02-08T17:32:52.393Z,8.80
2019-02-08T17:35:25.630Z,8.63
2019-02-08T17:37:56.262Z,8.56
2019-02-08T17:40:32.237Z,8.52
2019-02-08T17:43:02.950Z,8.68
2019-02-08T17:45:34.313Z,8.58
2019-02-08T17:48:07.229Z,8.70
2019-02-08T17:50:37.990Z,8.65
2019-02-08T17:53:08.758Z,8.72
2019-02-08T17:55:55.216Z,8.72
2019-02-08T17:58:25.939Z,8.60
2019-02-08T18:00:58.285Z,8.67
2019-02-08T18:03:29.654Z,8.72
2019-02-08T18:06:13.900Z,8.54
2019-02-08T18:08:45.186Z,8.60
2019-02-08T18:11:17.725Z,8.66
2019-02-08T18:13:48.475Z,8.56
2019-02-08T18:16:19.168Z,8.52
2019-02-08T18:18:51.581Z,8.52
2019-02-08T18:21:23.891Z,8.52
2019-02-08T18:23:54.627Z,8.64
2019-02-08T18:26:25.298Z,8.48
2019-02-08T18:28:55.989Z,8.51
2019-02-08T18:31:26.622Z,8.50
2019-02-08T18:34:01.340Z,8.45
2019-02-08T18:36:32.294Z,8.47
2019-02-08T18:39:03.483Z,8.34
2019-02-08T18:41:35.731Z,8.29
2019-02-08T18:44:07.167Z,8.27
2019-02-08T18:46:37.935Z,8.14
2019-02-08T18:49:10.448Z,8.22
2019-02-08T18:51:41.144Z,8.24
2019-02-08T18:54:11.929Z,8.16
2019-02-08T18:56:42.320Z,8.16
2019-02-08T18:59:13.073Z,7.97
2019-02-08T19:01:43.635Z,8.00
2019-02-08T19:04:14.259Z,7.88
2019-02-08T19:06:44.898Z,7.91
2019-02-08T19:09:15.663Z,7.92
2019-02-08T19:11:46.363Z,7.84
2019-02-08T19:14:16.820Z,7.82
2019-02-08T19:16:49.365Z,7.81
2019-02-08T19:19:20.235Z,7.84
2019-02-08T19:21:51.151Z,7.72
2019-02-08T19:24:22.023Z,7.82
2019-02-08T19:26:52.748Z,7.75
2019-02-08T19:29:23.448Z,7.70
2019-02-08T19:31:53.739Z,7.71
2019-02-08T19:34:26.103Z,7.60
2019-02-08T19:36:59.053Z,7.70
2019-02-08T19:39:30.118Z,7.42
2019-02-08T19:42:00.764Z,7.39
2019-02-08T19:44:31.678Z,7.44
2019-02-08T19:47:02.904Z,7.56
2019-02-08T19:49:33.769Z,7.57
2019-02-08T19:52:04.499Z,7.58
2019-02-08T19:54:35.657Z,7.60
2019-02-08T19:57:06.777Z,7.65
2019-02-08T19:59:37.282Z,7.56
2019-02-08T20:02:08.497Z,7.42
2019-02-08T20:04:39.459Z,7.46
2019-02-08T20:07:10.307Z,7.65
2019-02-08T20:09:40.701Z,7.58
2019-02-08T20:12:11.425Z,7.59
2019-02-08T20:14:42.399Z,7.50
2019-02-08T20:17:13.159Z,7.58
2019-02-08T20:19:44.043Z,7.60
2019-02-08T20:22:14.680Z,7.68
2019-02-08T20:24:45.347Z,7.69
2019-02-08T20:27:16.353Z,7.74
2019-02-08T20:29:47.071Z,7.46
2019-02-08T20:32:17.689Z,7.68
2019-02-08T20:34:48.583Z,7.67
2019-02-08T20:37:19.262Z,7.52
2019-02-08T20:39:52.358Z,7.67
2019-02-08T20:42:23.498Z,7.64
2019-02-08T20:44:54.337Z,7.72
2019-02-08T20:47:25.107Z,7.71
2019-02-08T20:49:57.996Z,7.78
2019-02-08T20:52:32.718Z,7.91
2019-02-08T20:55:03.709Z,7.80
2019-02-08T20:57:34.537Z,7.69
2019-02-08T21:00:33.684Z,7.56
2019-02-08T21:03:08.072Z,7.69
2019-02-08T21:05:41.279Z,7.42
2019-02-08T21:08:12.896Z,7.60
2019-02-08T21:10:46.207Z,7.70
2019-02-08T21:13:17.031Z,7.66
2019-02-08T21:15:48.582Z,7.52
2019-02-08T21:18:18.930Z,7.59
2019-02-08T21:20:49.425Z,7.60
2019-02-08T21:23:20.694Z,7.56
2019-02-08T21:25:52.537Z,7.58
2019-02-08T21:28:23.270Z,7.42
2019-02-08T21:30:54.120Z,7.32
2019-02-08T21:33:25.130Z,7.40
2019-02-08T21:35:56.312Z,7.40
2019-02-08T21:38:27.018Z,7.47
2019-02-08T21:40:57.950Z,7.48
2019-02-08T21:43:31.643Z,7.19
2019-02-08T21:46:02.781Z,7.29
2019-02-08T21:48:37.244Z,7.24
2019-02-08T21:51:08.147Z,7.16
2019-02-08T21:53:39.068Z,7.34
2019-02-08T21:56:09.963Z,7.27
2019-02-08T21:58:45.052Z,7.34
2019-02-08T22:01:16.258Z,7.30
2019-02-08T22:03:49.610Z,7.22
2019-02-08T22:06:20.766Z,7.08
2019-02-08T22:08:51.808Z,7.22
2019-02-08T22:11:23.745Z,6.97
2019-02-08T22:13:54.420Z,7.05
2019-02-08T22:16:25.234Z,7.16
2019-02-08T22:18:55.950Z,7.02
2019-02-08T22:21:26.616Z,6.92
2019-02-08T22:23:56.898Z,6.96
2019-02-08T22:26:27.582Z,6.82
2019-02-08T22:28:58.175Z,7.00
2019-02-08T22:31:28.480Z,6.92
2019-02-08T22:33:59.133Z,6.82
2019-02-08T22:36:29.764Z,6.86
2019-02-08T22:39:00.387Z,6.69
2019-02-08T22:41:31.060Z,6.63
2019-02-08T22:44:01.758Z,6.64
2019-02-08T22:46:32.415Z,6.66
2019-02-08T22:49:03.178Z,6.63
2019-02-08T22:51:34.955Z,6.56
2019-02-08T22:54:05.615Z,6.48
2019-02-08T22:56:36.243Z,6.64
2019-02-08T22:59:06.572Z,6.50
2019-02-08T23:01:37.824Z,6.55
2019-02-08T23:04:08.127Z,6.65
2019-02-08T23:06:44.543Z,6.54
2019-02-08T23:09:14.541Z,6.62
2019-02-08T23:11:45.310Z,6.33
2019-02-08T23:14:16.042Z,6.38
2019-02-08T23:16:46.741Z,6.54
2019-02-08T23:19:17.017Z,6.33
2019-02-08T23:21:47.692Z,6.46
2019-02-08T23:24:18.334Z,6.46
2019-02-08T23:26:48.654Z,6.54
2019-02-08T23:29:19.430Z,6.72
2019-02-08T23:31:50.082Z,6.48
2019-02-08T23:34:20.761Z,6.44
2019-02-08T23:36:51.384Z,6.38
2019-02-08T23:39:22.035Z,6.57
2019-02-08T23:41:52.752Z,6.69
2019-02-08T23:44:23.360Z,6.70
2019-02-08T23:46:53.970Z,6.47
2019-02-08T23:49:24.704Z,6.60
2019-02-08T23:51:55.336Z,6.60
2019-02-08T23:54:26.076Z,6.57
2019-02-08T23:56:57.848Z,6.60
2019-02-08T23:59:28.509Z,6.54
